Time;durP1;ratioP1;P1;durP2;ratioP2;P2;SDS_P1;SDS_P2;PMS_P1;PMS_P2;Temp;Humidity;BMP_temperature;BMP_pressure;BME280_temperature;BME280_humidity;BME280_pressure;Samples;Min_cycle;Max_cycle;Signal;HPM_P1;HPM_P2
2022/06/03 00:00:24;;;;;;;;;;;;;;;;;;5065349;28;20028;-66
2022/06/03 00:02:55;;;;;;;13.50;6.05;;;;;;;;;;5067654;28;19912;-66
2022/06/03 00:05:45;;;;;;;8.40;5.68;;;;;;;;;;5067238;28;20041;-66
2022/06/03 00:08:30;;;;;;;8.50;6.30;;;;;;;;;;5065798;28;20047;-66
2022/06/03 00:10:58;;;;;;;11.98;6.28;;;;;;;;;;5064532;28;20409;-66
2022/06/03 00:13:33;;;;;;;8.02;5.90;;;;;;;;;;5066296;28;20032;-66
2022/06/03 00:16:26;;;;;;;11.23;6.38;;;;;;;;;;5060082;28;20020;-66
2022/06/03 00:19:13;;;;;;;8.20;5.90;;;;;;;;;;5067968;28;20021;-66
2022/06/03 00:21:50;;;;;;;10.50;6.05;;;;;;;;;;5066982;28;20059;-66
2022/06/03 00:24:30;;;;;;;9.80;6.15;;;;;;;;;;5066199;28;20094;-66
2022/06/03 00:27:34;;;;;;;7.78;6.10;;;;;;;;;;5067023;28;20054;-66
2022/06/03 00:30:16;;;;;;;10.60;6.03;;;;;;;;;;5063430;28;20068;-66
2022/06/03 00:33:20;;;;;;;10.02;6.68;;;;;;;;;;5065706;28;20056;-66
2022/06/03 00:35:52;;;;;;;8.40;6.25;;;;;;;;;;5062878;28;20097;-66
2022/06/03 00:38:28;;;;;;;9.73;6.25;;;;;;;;;;5073968;28;20039;-66
2022/06/03 00:41:09;;;;;;;10.73;6.57;;;;;;;;;;5067498;28;20040;-66
2022/06/03 00:43:47;;;;;;;8.57;6.75;;;;;;;;;;5055045;28;20041;-66
2022/06/03 00:46:31;;;;;;;8.10;6.47;;;;;;;;;;5064835;28;20060;-66
2022/06/03 00:49:28;;;;;;;10.98;6.97;;;;;;;;;;5066346;28;20059;-66
2022/06/03 00:52:25;;;;;;;10.77;6.85;;;;;;;;;;5066975;28;20023;-66
2022/06/03 00:54:56;;;;;;;9.63;6.97;;;;;;;;;;5060133;28;20024;-66
2022/06/03 00:57:31;;;;;;;9.07;6.65;;;;;;;;;;5067922;28;20090;-66
2022/06/03 01:00:06;;;;;;;9.18;6.18;;;;;;;;;;5064876;28;20446;-66
2022/06/03 01:03:08;;;;;;;8.65;6.90;;;;;;;;;;5067211;28;20064;-66
2022/06/03 01:06:07;;;;;;;10.38;6.65;;;;;;;;;;5055355;28;20040;-65
2022/06/03 01:08:38;;;;;;;8.75;6.45;;;;;;;;;;5064942;28;20429;-66
2022/06/03 01:11:04;;;;;;;8.50;7.03;;;;;;;;;;5066895;28;20397;-66
2022/06/03 01:13:54;;;;;;;9.07;6.25;;;;;;;;;;5070791;28;20047;-66
2022/06/03 01:16:32;;;;;;;8.15;6.00;;;;;;;;;;5074233;28;20043;-65
2022/06/03 01:19:25;;;;;;;7.53;6.18;;;;;;;;;;5065793;28;20409;-66
2022/06/03 01:22:20;;;;;;;8.63;6.30;;;;;;;;;;5062711;28;20033;-66
2022/06/03 01:25:23;;;;;;;7.90;6.28;;;;;;;;;;5059400;28;20036;-66
2022/06/03 01:28:28;;;;;;;9.27;6.60;;;;;;;;;;5063770;28;20040;-66
2022/06/03 01:31:18;;;;;;;9.18;6.15;;;;;;;;;;5028217;28;20128;-66
2022/06/03 01:34:05;;;;;;;9.32;6.60;;;;;;;;;;5063754;28;20029;-66
2022/06/03 01:36:50;;;;;;;8.82;6.68;;;;;;;;;;5067330;28;20020;-66
2022/06/03 01:39:51;;;;;;;11.73;6.90;;;;;;;;;;5063580;28;20088;-66
2022/06/03 01:42:45;;;;;;;10.98;7.20;;;;;;;;;;5043389;28;20052;-66
2022/06/03 01:45:32;;;;;;;11.93;6.85;;;;;;;;;;5069952;28;20036;-66
2022/06/03 01:47:58;;;;;;;10.82;7.05;;;;;;;;;;5082997;28;20083;-66
2022/06/03 01:50:54;;;;;;;12.07;6.95;;;;;;;;;;5087114;28;20062;-66
2022/06/03 01:53:42;;;;;;;12.10;7.78;;;;;;;;;;5075092;28;20035;-66
2022/06/03 01:56:10;;;;;;;12.18;7.78;;;;;;;;;;5075970;28;21029;-66
2022/06/03 01:59:00;;;;;;;8.95;7.22;;;;;;;;;;5091171;28;20123;-66
2022/06/03 02:02:03;;;;;;;11.57;7.18;;;;;;;;;;5089513;28;20036;-66
2022/06/03 02:05:10;;;;;;;10.27;7.45;;;;;;;;;;5089328;28;20503;-66
2022/06/03 02:08:13;;;;;;;8.93;6.95;;;;;;;;;;5034262;28;20053;-66
2022/06/03 02:11:08;;;;;;;10.05;7.30;;;;;;;;;;5036277;28;20033;-66
2022/06/03 02:14:00;;;;;;;10.90;7.32;;;;;;;;;;5077144;28;20118;-66
2022/06/03 02:16:50;;;;;;;11.52;7.40;;;;;;;;;;5082142;28;20796;-65
2022/06/03 02:19:23;;;;;;;10.48;7.57;;;;;;;;;;5071758;28;20626;-66
2022/06/03 02:22:36;;;;;;;10.32;7.28;;;;;;;;;;5081863;28;20844;-66
2022/06/03 02:25:17;;;;;;;9.93;7.60;;;;;;;;;;5037946;28;20052;-66
2022/06/03 02:28:19;;;;;;;10.40;7.07;;;;;;;;;;5089109;28;20426;-66
2022/06/03 02:30:45;;;;;;;10.10;7.07;;;;;;;;;;5088163;28;20052;-66
2022/06/03 02:33:29;;;;;;;14.95;7.85;;;;;;;;;;5090433;28;20042;-66
2022/06/03 02:36:41;;;;;;;11.02;7.63;;;;;;;;;;5088714;28;20047;-65
2022/06/03 02:39:28;;;;;;;10.93;6.95;;;;;;;;;;5085618;28;20036;-66
2022/06/03 02:42:25;;;;;;;9.77;7.22;;;;;;;;;;5111506;27;20044;-66
2022/06/03 02:45:09;;;;;;;11.27;7.45;;;;;;;;;;5080077;28;20055;-66
2022/06/03 02:47:46;;;;;;;10.98;6.95;;;;;;;;;;5088340;28;20522;-66
2022/06/03 02:50:30;;;;;;;10.68;7.93;;;;;;;;;;5087135;28;20054;-66
2022/06/03 02:53:33;;;;;;;9.75;7.47;;;;;;;;;;5086570;28;20052;-65
2022/06/03 02:56:12;;;;;;;11.40;7.63;;;;;;;;;;5086396;28;20071;-66
2022/06/03 02:59:07;;;;;;;10.50;7.47;;;;;;;;;;5090603;28;20032;-65
2022/06/03 03:02:08;;;;;;;11.05;7.60;;;;;;;;;;5090070;28;20032;-66
2022/06/03 03:04:57;;;;;;;12.23;7.43;;;;;;;;;;5015250;28;20546;-66
2022/06/03 03:07:52;;;;;;;12.50;7.55;;;;;;;;;;5066901;28;20425;-65
2022/06/03 03:10:35;;;;;;;11.35;7.10;;;;;;;;;;5066664;28;20043;-65
2022/06/03 03:13:00;;;;;;;;;;;;;;;;;;5062880;28;20028;-66
2022/06/03 03:15:43;;;;;;;11.47;7.50;;;;;;;;;;5076081;28;19919;-65
2022/06/03 03:18:27;;;;;;;10.57;7.82;;;;;;;;;;5069064;28;20370;-66
2022/06/03 03:21:05;;;;;;;11.27;7.55;;;;;;;;;;5073665;28;20055;-65
2022/06/03 03:23:46;;;;;;;12.88;7.50;;;;;;;;;;5068131;28;20041;-65
2022/06/03 03:26:15;;;;;;;13.43;7.78;;;;;;;;;;5068903;28;20132;-66
2022/06/03 03:29:09;;;;;;;12.18;8.45;;;;;;;;;;5063018;28;20127;-66
2022/06/03 03:31:53;;;;;;;10.95;7.78;;;;;;;;;;5057549;28;20114;-65
2022/06/03 03:34:56;;;;;;;12.10;8.60;;;;;;;;;;5066050;28;20039;-65
2022/06/03 03:37:41;;;;;;;11.32;8.10;;;;;;;;;;5066063;28;20039;-66
2022/06/03 03:40:44;;;;;;;10.77;7.50;;;;;;;;;;5052382;28;20479;-65
2022/06/03 03:43:28;;;;;;;11.85;8.02;;;;;;;;;;5063143;28;20314;-66
2022/06/03 03:46:25;;;;;;;13.00;8.35;;;;;;;;;;5057236;28;20100;-65
2022/06/03 03:49:55;;;;;;;12.90;7.85;;;;;;;;;;5058198;28;20033;-66
2022/06/03 03:52:32;;;;;;;14.95;8.48;;;;;;;;;;5025829;28;20057;-65
2022/06/03 03:55:25;;;;;;;11.02;7.43;;;;;;;;;;5024547;28;20062;-65
2022/06/03 03:58:02;;;;;;;15.18;7.80;;;;;;;;;;5065042;28;20037;-66
2022/06/03 04:00:28;;;;;;;10.05;7.35;;;;;;;;;;5056143;28;20123;-65
2022/06/03 04:03:31;;;;;;;10.45;7.50;;;;;;;;;;5061466;28;20639;-66
2022/06/03 04:05:59;;;;;;;10.30;7.25;;;;;;;;;;5013331;28;20639;-66
2022/06/03 04:08:42;;;;;;;14.45;7.47;;;;;;;;;;5067586;28;20119;-66
2022/06/03 04:11:22;;;;;;;10.52;7.70;;;;;;;;;;5059344;28;20037;-66
2022/06/03 04:14:06;;;;;;;11.68;7.38;;;;;;;;;;5072712;28;20036;-66
2022/06/03 04:17:05;;;;;;;13.43;8.05;;;;;;;;;;5069425;28;20509;-65
2022/06/03 04:19:45;;;;;;;16.40;8.18;;;;;;;;;;5056631;28;20067;-66
2022/06/03 04:22:26;;;;;;;12.68;7.63;;;;;;;;;;5054582;28;20032;-66
2022/06/03 04:25:17;;;;;;;12.85;8.18;;;;;;;;;;5062745;28;20028;-66
2022/06/03 04:28:18;;;;;;;11.35;7.80;;;;;;;;;;5047012;28;20074;-65
2022/06/03 04:31:08;;;;;;;12.38;7.95;;;;;;;;;;5060882;28;20037;-66
2022/06/03 04:33:51;;;;;;;15.15;8.40;;;;;;;;;;5065786;28;20032;-65
2022/06/03 04:36:20;;;;;;;;;;;;;;;;;;5077172;28;20035;-66
2022/06/03 04:39:01;;;;;;;11.80;7.75;;;;;;;;;;5081310;28;20006;-66
2022/06/03 04:41:48;;;;;;;11.77;7.78;;;;;;;;;;5091905;28;20147;-65
2022/06/03 04:44:35;;;;;;;12.40;8.65;;;;;;;;;;5072672;28;20052;-65
2022/06/03 04:47:18;;;;;;;13.50;8.70;;;;;;;;;;5062907;28;20047;-66
2022/06/03 04:50:23;;;;;;;13.75;8.20;;;;;;;;;;5066474;28;20891;-66
2022/06/03 04:52:55;;;;;;;12.02;8.38;;;;;;;;;;5064904;28;20115;-66
2022/06/03 04:55:51;;;;;;;11.45;7.68;;;;;;;;;;5060392;28;20464;-66
2022/06/03 04:58:53;;;;;;;19.02;8.52;;;;;;;;;;5054293;28;20036;-66
2022/06/03 05:01:56;;;;;;;12.05;7.90;;;;;;;;;;5056889;28;20029;-66
2022/06/03 05:04:51;;;;;;;12.70;8.10;;;;;;;;;;5063243;28;20185;-65
2022/06/03 05:07:54;;;;;;;14.15;8.50;;;;;;;;;;5066948;28;20040;-66
2022/06/03 05:10:22;;;;;;;14.55;8.27;;;;;;;;;;5066026;28;20085;-65
2022/06/03 05:13:27;;;;;;;13.65;8.38;;;;;;;;;;5060887;28;20040;-66
2022/06/03 05:16:13;;;;;;;15.77;8.30;;;;;;;;;;5085195;28;20020;-66
2022/06/03 05:19:01;;;;;;;12.57;8.30;;;;;;;;;;5067645;28;20071;-66
2022/06/03 05:21:42;;;;;;;12.18;8.25;;;;;;;;;;5061822;28;20057;-66
2022/06/03 05:24:32;;;;;;;12.40;8.23;;;;;;;;;;5062636;28;20033;-66
2022/06/03 05:27:16;;;;;;;11.27;7.25;;;;;;;;;;5058259;28;20041;-66
2022/06/03 05:30:06;;;;;;;12.18;7.85;;;;;;;;;;5073406;28;20063;-66
2022/06/03 05:32:37;;;;;;;14.00;8.63;;;;;;;;;;5059902;28;20075;-66
2022/06/03 05:35:21;;;;;;;14.25;7.82;;;;;;;;;;5068600;28;20085;-66
2022/06/03 05:37:51;;;;;;;;;;;;;;;;;;5071767;28;20039;-66
2022/06/03 05:40:49;;;;;;;13.15;7.80;;;;;;;;;;5068122;28;19973;-66
2022/06/03 05:43:14;;;;;;;13.13;7.72;;;;;;;;;;5063933;28;20094;-65
2022/06/03 05:46:17;;;;;;;12.65;8.05;;;;;;;;;;5067155;28;20021;-66
2022/06/03 05:48:50;;;;;;;13.25;8.05;;;;;;;;;;5034033;28;20071;-66
2022/06/03 05:51:30;;;;;;;11.45;7.88;;;;;;;;;;5064368;28;20035;-66
2022/06/03 05:54:00;;;;;;;13.25;7.40;;;;;;;;;;5070105;28;20032;-65
2022/06/03 05:56:56;;;;;;;13.82;7.78;;;;;;;;;;5063131;28;20505;-65
2022/06/03 05:59:39;;;;;;;12.10;7.80;;;;;;;;;;5056894;28;21394;-65
2022/06/03 06:02:14;;;;;;;11.50;7.57;;;;;;;;;;5064637;28;20032;-65
2022/06/03 06:05:18;;;;;;;10.05;7.45;;;;;;;;;;5072293;28;20040;-65
2022/06/03 06:07:52;;;;;;;10.43;7.10;;;;;;;;;;5063785;28;20080;-66
2022/06/03 06:10:32;;;;;;;12.90;8.00;;;;;;;;;;5069364;28;20035;-66
2022/06/03 06:13:24;;;;;;;11.68;7.57;;;;;;;;;;5069921;28;20118;-64
2022/06/03 06:16:08;;;;;;;13.93;7.90;;;;;;;;;;5049026;28;20393;-65
2022/06/03 06:18:40;;;;;;;15.75;7.43;;;;;;;;;;5059775;28;20082;-65
2022/06/03 06:21:30;;;;;;;9.10;6.63;;;;;;;;;;5068932;28;20049;-66
2022/06/03 06:24:08;;;;;;;11.30;7.03;;;;;;;;;;5072344;28;20255;-66
2022/06/03 06:26:55;;;;;;;14.30;7.07;;;;;;;;;;5066006;28;20036;-65
2022/06/03 06:29:37;;;;;;;11.35;7.55;;;;;;;;;;5068591;28;20072;-66
2022/06/03 06:32:27;;;;;;;8.75;6.25;;;;;;;;;;5065279;28;20480;-65
2022/06/03 06:35:34;;;;;;;8.85;6.40;;;;;;;;;;5067522;28;20052;-65
2022/06/03 06:38:08;;;;;;;12.48;6.65;;;;;;;;;;5063459;28;20040;-65
2022/06/03 06:40:51;;;;;;;13.32;7.10;;;;;;;;;;5067022;28;20059;-65
2022/06/03 06:43:43;;;;;;;12.18;6.50;;;;;;;;;;5058088;28;20036;-65
2022/06/03 06:46:12;;;;;;;10.80;6.30;;;;;;;;;;5066543;28;20131;-65
2022/06/03 06:49:15;;;;;;;16.63;6.32;;;;;;;;;;5062064;28;20024;-65
2022/06/03 06:51:58;;;;;;;12.25;5.95;;;;;;;;;;5060737;28;20041;-65
2022/06/03 06:54:51;;;;;;;8.98;5.70;;;;;;;;;;5080144;28;20044;-66
2022/06/03 06:57:25;;;;;;;12.07;5.68;;;;;;;;;;5083246;28;20059;-65
2022/06/03 07:00:09;;;;;;;;;;;;;;;;;;5087332;28;20032;-65
2022/06/03 07:02:52;;;;;;;9.27;5.72;;;;;;;;;;5086632;28;19946;-65
2022/06/03 07:05:28;;;;;;;9.45;5.55;;;;;;;;;;5077902;28;20404;-65
2022/06/03 07:08:03;;;;;;;14.75;6.75;;;;;;;;;;5084037;28;20056;-65
2022/06/03 07:10:42;;;;;;;11.25;5.60;;;;;;;;;;5090403;28;20558;-66
2022/06/03 07:13:15;;;;;;;8.25;5.60;;;;;;;;;;5093107;28;20024;-65
2022/06/03 07:19:47;;;;;;;10.35;5.63;;;;;;;;;;5087605;28;20024;-66
2022/06/03 07:22:14;;;;;;;10.82;5.43;;;;;;;;;;5079738;28;20070;-65
2022/06/03 07:24:53;;;;;;;8.88;5.03;;;;;;;;;;5086732;28;20020;-65
2022/06/03 07:27:39;;;;;;;10.07;5.22;;;;;;;;;;5084827;28;20058;-65
2022/06/03 07:30:12;;;;;;;14.48;5.55;;;;;;;;;;5065241;28;20711;-65
2022/06/03 07:33:00;;;;;;;7.95;5.13;;;;;;;;;;5060196;28;20044;-66
2022/06/03 07:35:44;;;;;;;14.43;6.07;;;;;;;;;;5058489;28;20150;-65
2022/06/03 07:38:31;;;;;;;8.32;4.97;;;;;;;;;;5062903;28;21734;-65
2022/06/03 07:41:34;;;;;;;7.55;5.20;;;;;;;;;;5055597;28;20041;-65
2022/06/03 07:44:08;;;;;;;8.57;4.72;;;;;;;;;;5053332;28;20087;-65
2022/06/03 07:46:43;;;;;;;7.70;5.25;;;;;;;;;;5061867;28;20544;-65
2022/06/03 07:49:09;;;;;;;7.97;5.25;;;;;;;;;;5064857;28;20036;-65
2022/06/03 07:51:42;;;;;;;7.40;5.07;;;;;;;;;;5061114;28;20021;-65
2022/06/03 07:54:18;;;;;;;8.27;5.30;;;;;;;;;;5057856;28;20036;-65
2022/06/03 07:56:44;;;;;;;7.50;4.95;;;;;;;;;;5065229;28;20058;-65
2022/06/03 07:59:17;;;;;;;8.52;5.30;;;;;;;;;;5062920;28;20123;-65
2022/06/03 08:01:55;;;;;;;11.85;5.57;;;;;;;;;;5059425;28;20067;-65
2022/06/03 08:04:35;;;;;;;11.75;5.00;;;;;;;;;;5061472;28;20082;-65
2022/06/03 08:12:37;;;;;;;7.90;4.68;;;;;;;;;;5060880;28;20075;-65
2022/06/03 08:15:18;;;;;;;7.40;4.78;;;;;;;;;;5059307;28;20117;-66
2022/06/03 08:17:46;;;;;;;9.52;4.82;;;;;;;;;;5057662;28;20033;-66
2022/06/03 08:20:14;;;;;;;10.88;4.65;;;;;;;;;;5056395;28;20158;-65
2022/06/03 08:22:39;;;;;;;7.05;4.50;;;;;;;;;;5056394;28;20044;-65
2022/06/03 08:25:07;;;;;;;7.30;4.40;;;;;;;;;;5054846;28;20029;-65
2022/06/03 08:27:35;;;;;;;6.88;4.32;;;;;;;;;;5055523;28;20052;-66
2022/06/03 08:30:02;;;;;;;8.57;4.32;;;;;;;;;;5059895;28;20100;-65
2022/06/03 08:32:35;;;;;;;5.60;4.30;;;;;;;;;;5058158;28;20517;-65
2022/06/03 08:35:04;;;;;;;;;;;;;;;;;;5068595;28;20052;-65
2022/06/03 08:37:35;;;;;;;9.40;4.65;;;;;;;;;;5060182;28;19942;-65
2022/06/03 08:40:15;;;;;;;8.05;3.80;;;;;;;;;;5063402;28;20025;-65
2022/06/03 08:43:22;;;;;;;6.22;3.92;;;;;;;;;;5060296;28;20577;-65
2022/06/03 08:46:14;;;;;;;6.38;4.22;;;;;;;;;;5040920;28;20033;-65
2022/06/03 08:48:42;;;;;;;12.43;4.43;;;;;;;;;;5060980;28;20033;-65
2022/06/03 08:51:32;;;;;;;8.43;4.15;;;;;;;;;;5060811;28;20440;-65
2022/06/03 08:54:01;;;;;;;7.18;4.35;;;;;;;;;;5058457;28;20033;-65
2022/06/03 08:56:33;;;;;;;5.15;4.32;;;;;;;;;;5065437;28;20028;-65
2022/06/03 08:59:04;;;;;;;6.90;4.65;;;;;;;;;;5062396;28;20060;-65
2022/06/03 09:01:36;;;;;;;8.18;4.40;;;;;;;;;;5064897;28;20051;-65
2022/06/03 09:04:13;;;;;;;7.45;4.50;;;;;;;;;;5064751;28;20032;-66
2022/06/03 09:06:54;;;;;;;6.75;4.13;;;;;;;;;;5065696;28;20037;-65
2022/06/03 09:09:26;;;;;;;7.90;4.93;;;;;;;;;;5056529;28;20106;-65
2022/06/03 09:12:01;;;;;;;6.80;4.55;;;;;;;;;;5059248;28;20518;-65
2022/06/03 09:14:28;;;;;;;10.30;4.60;;;;;;;;;;5070778;28;20032;-65
2022/06/03 09:17:03;;;;;;;6.47;4.72;;;;;;;;;;5069145;28;20549;-65
2022/06/03 09:19:36;;;;;;;7.93;4.80;;;;;;;;;;5057047;28;20040;-66
2022/06/03 09:22:11;;;;;;;9.70;4.57;;;;;;;;;;5061578;28;20028;-66
2022/06/03 09:24:40;;;;;;;6.95;4.32;;;;;;;;;;5046757;28;20025;-65
2022/06/03 09:27:06;;;;;;;7.78;4.88;;;;;;;;;;5051123;28;20451;-65
2022/06/03 09:29:33;;;;;;;6.47;4.30;;;;;;;;;;5061437;28;20086;-66
2022/06/03 09:32:01;;;;;;;7.28;4.78;;;;;;;;;;5047571;28;20059;-66
2022/06/03 09:34:48;;;;;;;6.78;4.50;;;;;;;;;;5065074;28;20460;-65
2022/06/03 09:37:36;;;;;;;7.35;4.85;;;;;;;;;;5057024;28;20043;-65
2022/06/03 09:40:05;;;;;;;9.55;4.53;;;;;;;;;;5064867;28;20054;-65
2022/06/03 09:42:33;;;;;;;8.38;4.57;;;;;;;;;;5065175;28;20069;-66
2022/06/03 09:45:02;;;;;;;6.50;4.05;;;;;;;;;;5064615;28;20025;-66
2022/06/03 09:47:28;;;;;;;5.82;3.83;;;;;;;;;;5057634;28;20036;-66
2022/06/03 09:49:54;;;;;;;5.80;3.83;;;;;;;;;;5063202;28;20051;-66
2022/06/03 09:52:22;;;;;;;11.98;4.57;;;;;;;;;;5064800;28;20024;-66
2022/06/03 09:54:49;;;;;;;10.98;4.22;;;;;;;;;;5062791;28;20039;-65
2022/06/03 09:57:18;;;;;;;6.57;3.53;;;;;;;;;;5057857;28;20032;-66
2022/06/03 09:59:57;;;;;;;4.63;3.97;;;;;;;;;;5082450;28;20067;-66
2022/06/03 10:02:24;;;;;;;5.40;3.47;;;;;;;;;;5070233;28;20127;-66
2022/06/03 10:04:49;;;;;;;4.05;3.65;;;;;;;;;;5064172;28;20036;-66
2022/06/03 10:07:14;;;;;;;4.80;4.03;;;;;;;;;;5063095;28;20101;-66
2022/06/03 10:12:56;;;;;;;6.05;3.80;;;;;;;;;;5053047;28;20040;-67
2022/06/03 10:15:37;;;;;;;4.95;4.00;;;;;;;;;;5059641;28;20036;-67
2022/06/03 10:18:13;;;;;;;5.88;3.70;;;;;;;;;;5072172;28;20540;-66
2022/06/03 10:20:39;;;;;;;6.07;3.70;;;;;;;;;;5059969;28;20057;-66
2022/06/03 10:23:08;;;;;;;5.80;3.55;;;;;;;;;;5075574;28;20036;-66
2022/06/03 10:25:36;;;;;;;7.38;3.92;;;;;;;;;;5076707;28;20036;-66
2022/06/03 10:28:08;;;;;;;5.90;3.65;;;;;;;;;;5059587;28;20445;-66
2022/06/03 10:30:35;;;;;;;7.65;3.85;;;;;;;;;;5064581;28;20041;-66
2022/06/03 10:33:02;;;;;;;4.82;3.53;;;;;;;;;;5062258;28;20416;-66
2022/06/03 10:35:31;;;;;;;3.85;3.38;;;;;;;;;;5059915;28;20029;-65
2022/06/03 10:38:03;;;;;;;5.20;4.07;;;;;;;;;;5061790;28;20551;-66
2022/06/03 10:40:30;;;;;;;6.00;3.70;;;;;;;;;;5061507;28;20040;-66
2022/06/03 10:42:58;;;;;;;7.93;3.75;;;;;;;;;;5062101;28;20028;-66
2022/06/03 10:45:32;;;;;;;5.78;3.70;;;;;;;;;;5060066;28;20027;-66
2022/06/03 10:47:58;;;;;;;5.68;3.22;;;;;;;;;;5063264;28;20663;-67
2022/06/03 10:50:23;;;;;;;5.25;3.42;;;;;;;;;;5052155;28;20041;-67
2022/06/03 11:01:32;;;;;;;7.50;3.10;;;;;;;;;;5066058;28;20146;-66
2022/06/03 11:03:58;;;;;;;7.07;3.47;;;;;;;;;;5064650;28;20307;-66
2022/06/03 11:06:31;;;;;;;14.40;4.07;;;;;;;;;;5060102;28;20828;-66
2022/06/03 11:08:59;;;;;;;;;;;;;;;;;;5063649;28;20024;-66
2022/06/03 11:11:44;;;;;;;6.80;3.63;;;;;;;;;;5061267;28;19916;-66
2022/06/03 11:14:22;;;;;;;11.18;4.05;;;;;;;;;;5064029;28;20123;-66
2022/06/03 11:16:57;;;;;;;5.20;3.72;;;;;;;;;;5059565;28;20532;-65
2022/06/03 11:19:23;;;;;;;4.97;3.60;;;;;;;;;;5054239;28;20040;-65
2022/06/03 11:22:17;;;;;;;4.20;3.75;;;;;;;;;;5056849;28;20481;-66
2022/06/03 11:24:54;;;;;;;8.93;3.70;;;;;;;;;;5061607;28;20048;-66
2022/06/03 11:27:25;;;;;;;7.03;4.40;;;;;;;;;;5059489;28;20621;-66
2022/06/03 11:29:53;;;;;;;3.83;3.50;;;;;;;;;;5064679;28;20394;-66
2022/06/03 11:32:18;;;;;;;6.15;4.05;;;;;;;;;;5062661;28;20033;-66
2022/06/03 11:34:54;;;;;;;5.20;3.78;;;;;;;;;;5057081;28;20047;-67
2022/06/03 11:37:31;;;;;;;6.68;3.70;;;;;;;;;;5062177;28;20163;-66
2022/06/03 11:40:01;;;;;;;4.50;3.80;;;;;;;;;;5061781;28;20028;-66
2022/06/03 11:42:55;;;;;;;5.10;3.80;;;;;;;;;;5064211;28;20135;-67
2022/06/03 11:45:28;;;;;;;5.53;3.70;;;;;;;;;;5055909;28;20075;-66
2022/06/03 11:47:58;;;;;;;4.53;3.80;;;;;;;;;;5060606;28;20081;-67
2022/06/03 11:50:27;;;;;;;5.18;3.78;;;;;;;;;;5055336;28;20076;-67
2022/06/03 11:52:54;;;;;;;6.30;3.72;;;;;;;;;;5054507;28;20047;-67
2022/06/03 11:55:22;;;;;;;6.05;3.75;;;;;;;;;;5061275;28;20032;-67
2022/06/03 11:58:02;;;;;;;5.40;3.75;;;;;;;;;;5058494;28;20017;-67
2022/06/03 12:00:32;;;;;;;6.05;3.50;;;;;;;;;;5063769;28;20112;-68
2022/06/03 12:03:01;;;;;;;8.93;3.85;;;;;;;;;;5063381;28;20056;-67
2022/06/03 12:05:34;;;;;;;4.88;3.72;;;;;;;;;;5055356;28;20090;-68
2022/06/03 12:08:21;;;;;;;4.50;3.85;;;;;;;;;;5060715;28;20131;-67
2022/06/03 12:10:53;;;;;;;6.53;3.70;;;;;;;;;;5065669;28;20046;-68
2022/06/03 12:13:30;;;;;;;4.75;3.50;;;;;;;;;;5061408;28;20039;-68
2022/06/03 12:15:59;;;;;;;3.92;3.53;;;;;;;;;;5052990;28;20074;-68
2022/06/03 12:18:37;;;;;;;4.72;3.75;;;;;;;;;;5059621;28;20024;-68
2022/06/03 12:21:14;;;;;;;6.47;3.53;;;;;;;;;;5053186;28;20435;-68
2022/06/03 12:23:41;;;;;;;7.10;3.72;;;;;;;;;;5063004;28;20418;-68
2022/06/03 12:26:22;;;;;;;4.53;3.78;;;;;;;;;;5062806;28;20037;-67
2022/06/03 12:28:50;;;;;;;7.35;3.47;;;;;;;;;;5060042;28;20735;-67
2022/06/03 12:31:21;;;;;;;3.80;3.30;;;;;;;;;;5056267;28;20032;-67
2022/06/03 12:34:20;;;;;;;4.25;3.70;;;;;;;;;;5059456;28;20665;-66
2022/06/03 12:36:52;;;;;;;6.28;3.47;;;;;;;;;;5061147;28;20012;-65
2022/06/03 12:39:43;;;;;;;5.13;3.50;;;;;;;;;;5060251;28;20033;-66
2022/06/03 12:42:12;;;;;;;5.40;3.40;;;;;;;;;;5077655;28;20068;-66
2022/06/03 12:44:56;;;;;;;5.07;3.45;;;;;;;;;;5082246;28;20123;-66
2022/06/03 12:47:24;;;;;;;;;;;;;;;;;;5085873;27;20151;-66
2022/06/03 12:49:55;;;;;;;5.47;3.65;;;;;;;;;;5075045;28;20360;-66
2022/06/03 12:52:20;;;;;;;5.10;3.78;;;;;;;;;;5067925;28;20036;-66
2022/06/03 12:54:54;;;;;;;4.50;3.50;;;;;;;;;;5059793;28;20028;-67
2022/06/03 12:57:26;;;;;;;3.50;3.20;;;;;;;;;;5054636;28;20021;-68
2022/06/03 13:00:14;;;;;;;4.28;3.42;;;;;;;;;;5064086;28;20585;-67
2022/06/03 13:03:27;;;;;;;4.75;3.03;;;;;;;;;;5080734;28;20416;-67
2022/06/03 13:05:56;;;;;;;6.05;3.67;;;;;;;;;;5056225;28;20052;-67
2022/06/03 13:08:28;;;;;;;4.10;3.28;;;;;;;;;;5056423;28;20408;-67
2022/06/03 13:11:00;;;;;;;6.57;3.45;;;;;;;;;;5054120;28;20094;-67
2022/06/03 13:13:34;;;;;;;7.03;3.58;;;;;;;;;;5067758;28;20044;-67
2022/06/03 13:16:00;;;;;;;8.10;3.70;;;;;;;;;;5079232;28;20415;-67
2022/06/03 13:18:41;;;;;;;7.90;3.63;;;;;;;;;;5059635;28;20020;-68
2022/06/03 13:21:06;;;;;;;3.97;3.55;;;;;;;;;;5087305;28;20230;-68
2022/06/03 13:23:33;;;;;;;3.95;3.65;;;;;;;;;;5080659;28;20150;-68
2022/06/03 13:26:21;;;;;;;3.88;3.13;;;;;;;;;;5075485;28;20405;-67
2022/06/03 13:28:51;;;;;;;5.00;3.70;;;;;;;;;;5079318;28;20121;-67
2022/06/03 13:31:31;;;;;;;6.97;3.60;;;;;;;;;;5072965;28;20440;-67
2022/06/03 13:34:07;;;;;;;8.23;3.30;;;;;;;;;;5077029;28;20028;-68
2022/06/03 13:36:34;;;;;;;3.45;3.10;;;;;;;;;;5076360;28;20023;-69
2022/06/03 13:38:59;;;;;;;3.80;3.33;;;;;;;;;;5081239;28;20512;-68
2022/06/03 13:44:47;;;;;;;5.30;3.60;;;;;;;;;;5078812;28;20085;-70
2022/06/03 13:47:13;;;;;;;5.60;3.35;;;;;;;;;;5068530;28;20040;-67
2022/06/03 13:49:51;;;;;;;4.40;3.60;;;;;;;;;;5058944;28;20448;-69
2022/06/03 13:52:25;;;;;;;4.22;3.53;;;;;;;;;;5067052;28;20417;-69
2022/06/03 13:55:16;;;;;;;3.78;3.47;;;;;;;;;;5064355;28;20028;-68
2022/06/03 13:57:51;;;;;;;4.53;3.65;;;;;;;;;;5088710;28;20040;-67
2022/06/03 14:00:35;;;;;;;4.43;3.22;;;;;;;;;;5065242;28;20099;-68
2022/06/03 14:03:03;;;;;;;6.68;3.35;;;;;;;;;;5056627;28;20167;-67
2022/06/03 14:05:41;;;;;;;4.30;3.40;;;;;;;;;;5066206;28;20037;-68
2022/06/03 14:08:18;;;;;;;3.88;2.95;;;;;;;;;;5066268;28;20041;-67
2022/06/03 14:10:48;;;;;;;3.55;3.10;;;;;;;;;;5056788;28;20421;-68
2022/06/03 14:13:14;;;;;;;4.25;3.85;;;;;;;;;;5063487;28;20036;-67
2022/06/03 14:16:01;;;;;;;3.72;3.40;;;;;;;;;;5064070;28;20024;-67
2022/06/03 14:18:53;;;;;;;3.67;3.38;;;;;;;;;;5083566;28;20032;-67
2022/06/03 14:21:33;;;;;;;5.43;3.13;;;;;;;;;;5079520;28;20052;-67
2022/06/03 14:24:25;;;;;;;4.85;3.00;;;;;;;;;;5057501;28;20074;-67
2022/06/03 14:26:59;;;;;;;4.13;3.20;;;;;;;;;;5054766;28;20045;-67
2022/06/03 14:29:29;;;;;;;4.03;3.58;;;;;;;;;;5054242;28;20131;-67
2022/06/03 14:32:09;;;;;;;3.97;3.03;;;;;;;;;;5056989;28;20037;-67
2022/06/03 14:34:45;;;;;;;4.05;3.10;;;;;;;;;;5059530;28;20040;-67
2022/06/03 14:37:16;;;;;;;4.47;3.00;;;;;;;;;;5063506;28;20394;-67
2022/06/03 14:39:44;;;;;;;4.40;3.15;;;;;;;;;;5058352;28;20899;-67
2022/06/03 14:42:17;;;;;;;4.75;3.00;;;;;;;;;;5061978;28;20031;-67
2022/06/03 14:44:45;;;;;;;4.30;3.10;;;;;;;;;;5087023;28;20075;-68
2022/06/03 14:47:18;;;;;;;3.40;3.10;;;;;;;;;;5074186;28;20082;-67
2022/06/03 14:49:59;;;;;;;4.13;2.92;;;;;;;;;;5059916;28;20032;-68
2022/06/03 14:52:29;;;;;;;4.60;3.50;;;;;;;;;;5057350;28;20525;-67
2022/06/03 14:55:23;;;;;;;4.80;3.10;;;;;;;;;;5045311;28;20033;-67
2022/06/03 14:58:04;;;;;;;3.45;3.15;;;;;;;;;;5044973;28;20033;-67
2022/06/03 15:00:38;;;;;;;5.45;3.45;;;;;;;;;;5052096;28;20031;-67
2022/06/03 15:03:29;;;;;;;5.55;3.05;;;;;;;;;;5056767;28;20528;-67
2022/06/03 15:06:00;;;;;;;3.53;3.20;;;;;;;;;;5059916;28;20044;-67
2022/06/03 15:08:42;;;;;;;4.70;3.25;;;;;;;;;;5058723;28;20067;-67
2022/06/03 15:11:13;;;;;;;4.43;3.28;;;;;;;;;;5055849;28;20563;-67
2022/06/03 15:13:39;;;;;;;4.95;3.10;;;;;;;;;;5067914;28;20109;-67
2022/06/03 15:16:06;;;;;;;3.20;2.90;;;;;;;;;;5077017;28;20505;-68
2022/06/03 15:18:33;;;;;;;5.18;3.17;;;;;;;;;;5058542;28;20069;-67
2022/06/03 15:21:25;;;;;;;4.43;2.90;;;;;;;;;;5062139;28;20102;-67
2022/06/03 15:23:57;;;;;;;3.65;3.35;;;;;;;;;;5059710;28;20067;-67
2022/06/03 15:26:28;;;;;;;6.22;2.95;;;;;;;;;;5063915;28;20044;-67
2022/06/03 15:29:05;;;;;;;4.88;3.30;;;;;;;;;;5058282;28;20136;-67
2022/06/03 15:31:34;;;;;;;5.10;2.80;;;;;;;;;;5058726;28;20429;-67
2022/06/03 15:34:03;;;;;;;3.53;2.90;;;;;;;;;;5059977;28;20468;-67
2022/06/03 15:36:36;;;;;;;4.10;2.97;;;;;;;;;;5064008;28;20127;-67
2022/06/03 15:39:30;;;;;;;4.85;3.10;;;;;;;;;;5062337;28;20036;-67
2022/06/03 15:41:58;;;;;;;5.47;3.15;;;;;;;;;;5061598;28;20059;-67
2022/06/03 15:44:43;;;;;;;5.47;2.95;;;;;;;;;;5066441;28;20032;-67
2022/06/03 15:47:26;;;;;;;3.55;3.25;;;;;;;;;;5056677;28;20075;-67
2022/06/03 15:50:13;;;;;;;3.67;2.67;;;;;;;;;;5057865;28;20033;-67
2022/06/03 15:52:48;;;;;;;5.15;2.80;;;;;;;;;;5058960;28;20075;-67
2022/06/03 15:55:15;;;;;;;3.70;3.03;;;;;;;;;;5065121;28;20036;-67
2022/06/03 15:57:50;;;;;;;3.45;2.92;;;;;;;;;;5060874;28;20029;-67
2022/06/03 16:00:29;;;;;;;4.53;3.00;;;;;;;;;;5059424;28;20040;-67
2022/06/03 16:03:44;;;;;;;6.55;3.00;;;;;;;;;;5057914;28;20064;-67
2022/06/03 16:06:24;;;;;;;3.67;2.88;;;;;;;;;;5027779;28;20219;-67
2022/06/03 16:09:16;;;;;;;3.58;3.10;;;;;;;;;;5058477;28;20044;-67
2022/06/03 16:11:56;;;;;;;4.38;3.25;;;;;;;;;;5041626;28;20139;-67
2022/06/03 16:14:46;;;;;;;4.57;3.10;;;;;;;;;;5060333;28;20109;-67
2022/06/03 16:17:40;;;;;;;4.97;3.20;;;;;;;;;;5060849;28;20437;-67
2022/06/03 16:20:08;;;;;;;3.80;3.40;;;;;;;;;;5055805;28;20133;-67